sensor_id;sensor_type;location;lat;lon;timestamp;temperature;humidity
75838;SHT30;64480;52.040;113.502;2023-04-24T00:02:40;9.75;17.79
75838;SHT30;64480;52.040;113.502;2023-04-24T00:05:44;9.94;18.22
75838;SHT30;64480;52.040;113.502;2023-04-24T00:08:48;9.87;17.59
75838;SHT30;64480;52.040;113.502;2023-04-24T00:11:52;9.33;17.91
75838;SHT30;64480;52.040;113.502;2023-04-24T00:14:56;9.47;17.78
75838;SHT30;64480;52.040;113.502;2023-04-24T00:17:59;9.21;17.91
75838;SHT30;64480;52.040;113.502;2023-04-24T00:21:04;8.59;18.14
75838;SHT30;64480;52.040;113.502;2023-04-24T00:24:08;8.39;18.52
75838;SHT30;64480;52.040;113.502;2023-04-24T00:27:14;8.28;18.84
75838;SHT30;64480;52.040;113.502;2023-04-24T00:30:17;8.66;18.53
75838;SHT30;64480;52.040;113.502;2023-04-24T00:33:21;8.71;18.36
75838;SHT30;64480;52.040;113.502;2023-04-24T00:36:24;8.97;17.65
75838;SHT30;64480;52.040;113.502;2023-04-24T00:39:29;8.74;17.79
75838;SHT30;64480;52.040;113.502;2023-04-24T00:42:33;8.42;17.88
75838;SHT30;64480;52.040;113.502;2023-04-24T00:45:38;7.84;18.62
75838;SHT30;64480;52.040;113.502;2023-04-24T00:48:43;7.75;18.55
75838;SHT30;64480;52.040;113.502;2023-04-24T00:51:47;7.19;18.92
75838;SHT30;64480;52.040;113.502;2023-04-24T00:54:52;5.62;20.04
75838;SHT30;64480;52.040;113.502;2023-04-24T00:57:55;4.77;20.93
75838;SHT30;64480;52.040;113.502;2023-04-24T01:00:59;4.25;21.93
75838;SHT30;64480;52.040;113.502;2023-04-24T01:04:04;3.73;22.40
75838;SHT30;64480;52.040;113.502;2023-04-24T01:07:08;3.42;23.34
75838;SHT30;64480;52.040;113.502;2023-04-24T01:10:14;3.56;23.04
75838;SHT30;64480;52.040;113.502;2023-04-24T01:13:20;3.48;23.37
75838;SHT30;64480;52.040;113.502;2023-04-24T01:16:24;3.22;23.47
75838;SHT30;64480;52.040;113.502;2023-04-24T01:19:28;3.07;23.35
75838;SHT30;64480;52.040;113.502;2023-04-24T01:22:34;2.90;23.39
75838;SHT30;64480;52.040;113.502;2023-04-24T01:25:37;2.66;23.77
75838;SHT30;64480;52.040;113.502;2023-04-24T01:28:41;2.77;23.52
75838;SHT30;64480;52.040;113.502;2023-04-24T01:31:45;2.90;23.05
75838;SHT30;64480;52.040;113.502;2023-04-24T01:34:49;2.96;23.51
75838;SHT30;64480;52.040;113.502;2023-04-24T01:37:52;2.89;23.48
75838;SHT30;64480;52.040;113.502;2023-04-24T01:40:56;2.72;23.51
75838;SHT30;64480;52.040;113.502;2023-04-24T01:43:59;2.94;23.37
75838;SHT30;64480;52.040;113.502;2023-04-24T01:47:03;3.05;23.46
75838;SHT30;64480;52.040;113.502;2023-04-24T01:50:07;2.94;23.05
75838;SHT30;64480;52.040;113.502;2023-04-24T01:53:13;2.90;22.56
75838;SHT30;64480;52.040;113.502;2023-04-24T01:56:17;2.97;22.23
75838;SHT30;64480;52.040;113.502;2023-04-24T01:59:22;3.19;22.26
75838;SHT30;64480;52.040;113.502;2023-04-24T02:02:26;3.29;22.16
75838;SHT30;64480;52.040;113.502;2023-04-24T02:05:31;3.28;21.38
75838;SHT30;64480;52.040;113.502;2023-04-24T02:08:37;3.19;20.84
75838;SHT30;64480;52.040;113.502;2023-04-24T02:11:41;3.18;19.96
75838;SHT30;64480;52.040;113.502;2023-04-24T02:14:44;3.27;20.04
75838;SHT30;64480;52.040;113.502;2023-04-24T02:17:47;3.34;20.40
75838;SHT30;64480;52.040;113.502;2023-04-24T02:20:51;3.53;20.15
75838;SHT30;64480;52.040;113.502;2023-04-24T02:23:55;3.48;20.08
75838;SHT30;64480;52.040;113.502;2023-04-24T02:26:58;3.62;19.68
75838;SHT30;64480;52.040;113.502;2023-04-24T02:30:01;3.74;19.20
75838;SHT30;64480;52.040;113.502;2023-04-24T02:33:06;3.81;19.39
75838;SHT30;64480;52.040;113.502;2023-04-24T02:36:09;3.66;18.84
75838;SHT30;64480;52.040;113.502;2023-04-24T02:39:12;3.70;18.95
75838;SHT30;64480;52.040;113.502;2023-04-24T02:42:17;3.58;19.45
75838;SHT30;64480;52.040;113.502;2023-04-24T02:45:20;3.69;18.50
75838;SHT30;64480;52.040;113.502;2023-04-24T02:48:23;3.69;18.52
75838;SHT30;64480;52.040;113.502;2023-04-24T02:51:27;3.81;19.02
75838;SHT30;64480;52.040;113.502;2023-04-24T02:54:30;3.98;18.21
75838;SHT30;64480;52.040;113.502;2023-04-24T02:57:34;4.09;18.05
75838;SHT30;64480;52.040;113.502;2023-04-24T03:00:37;3.98;17.53
75838;SHT30;64480;52.040;113.502;2023-04-24T03:03:41;3.95;17.73
75838;SHT30;64480;52.040;113.502;2023-04-24T03:06:44;4.01;17.90
75838;SHT30;64480;52.040;113.502;2023-04-24T03:09:48;4.07;17.52
75838;SHT30;64480;52.040;113.502;2023-04-24T03:12:52;3.97;18.01
75838;SHT30;64480;52.040;113.502;2023-04-24T03:15:55;4.08;17.90
75838;SHT30;64480;52.040;113.502;2023-04-24T03:18:59;4.21;17.54
75838;SHT30;64480;52.040;113.502;2023-04-24T03:22:06;4.15;17.05
75838;SHT30;64480;52.040;113.502;2023-04-24T03:25:13;4.25;17.10
75838;SHT30;64480;52.040;113.502;2023-04-24T03:28:16;4.21;17.68
75838;SHT30;64480;52.040;113.502;2023-04-24T03:31:26;4.49;18.19
75838;SHT30;64480;52.040;113.502;2023-04-24T03:34:30;4.55;17.30
75838;SHT30;64480;52.040;113.502;2023-04-24T03:37:33;4.62;17.33
75838;SHT30;64480;52.040;113.502;2023-04-24T03:40:56;4.50;16.85
75838;SHT30;64480;52.040;113.502;2023-04-24T03:44:10;4.45;16.29
75838;SHT30;64480;52.040;113.502;2023-04-24T03:47:14;4.29;16.68
75838;SHT30;64480;52.040;113.502;2023-04-24T03:50:20;4.45;16.92
75838;SHT30;64480;52.040;113.502;2023-04-24T03:53:24;4.35;16.65
75838;SHT30;64480;52.040;113.502;2023-04-24T03:56:28;4.63;16.69
75838;SHT30;64480;52.040;113.502;2023-04-24T03:59:31;4.63;16.51
75838;SHT30;64480;52.040;113.502;2023-04-24T04:02:50;4.73;15.98
75838;SHT30;64480;52.040;113.502;2023-04-24T04:05:54;4.70;16.09
75838;SHT30;64480;52.040;113.502;2023-04-24T04:08:58;4.44;15.96
75838;SHT30;64480;52.040;113.502;2023-04-24T04:12:02;4.60;16.25
75838;SHT30;64480;52.040;113.502;2023-04-24T04:15:07;4.76;15.96
75838;SHT30;64480;52.040;113.502;2023-04-24T04:18:11;4.80;15.89
75838;SHT30;64480;52.040;113.502;2023-04-24T04:21:15;4.59;16.31
75838;SHT30;64480;52.040;113.502;2023-04-24T04:24:19;4.64;16.71
75838;SHT30;64480;52.040;113.502;2023-04-24T04:27:27;4.66;15.90
75838;SHT30;64480;52.040;113.502;2023-04-24T04:30:37;4.88;16.11
75838;SHT30;64480;52.040;113.502;2023-04-24T04:33:41;4.83;16.41
75838;SHT30;64480;52.040;113.502;2023-04-24T04:36:44;4.97;16.27
75838;SHT30;64480;52.040;113.502;2023-04-24T04:40:00;5.04;16.54
75838;SHT30;64480;52.040;113.502;2023-04-24T04:43:11;5.14;15.76
75838;SHT30;64480;52.040;113.502;2023-04-24T04:46:24;5.21;16.31
75838;SHT30;64480;52.040;113.502;2023-04-24T04:49:40;5.34;16.33
75838;SHT30;64480;52.040;113.502;2023-04-24T04:52:51;5.21;16.04
75838;SHT30;64480;52.040;113.502;2023-04-24T04:56:01;5.21;15.79
75838;SHT30;64480;52.040;113.502;2023-04-24T04:59:12;5.21;15.92
75838;SHT30;64480;52.040;113.502;2023-04-24T05:02:15;5.07;16.46
75838;SHT30;64480;52.040;113.502;2023-04-24T05:05:19;5.21;16.03
75838;SHT30;64480;52.040;113.502;2023-04-24T05:08:23;5.05;16.18
75838;SHT30;64480;52.040;113.502;2023-04-24T05:11:30;5.15;16.57
75838;SHT30;64480;52.040;113.502;2023-04-24T05:14:35;4.95;16.49
75838;SHT30;64480;52.040;113.502;2023-04-24T05:17:39;5.14;16.51
75838;SHT30;64480;52.040;113.502;2023-04-24T05:20:44;5.14;16.29
75838;SHT30;64480;52.040;113.502;2023-04-24T05:23:48;5.14;16.34
75838;SHT30;64480;52.040;113.502;2023-04-24T05:27:01;5.15;15.95
75838;SHT30;64480;52.040;113.502;2023-04-24T05:30:10;5.25;16.22
75838;SHT30;64480;52.040;113.502;2023-04-24T05:33:13;5.18;16.04
75838;SHT30;64480;52.040;113.502;2023-04-24T05:36:17;5.17;16.34
75838;SHT30;64480;52.040;113.502;2023-04-24T05:39:20;5.22;16.23
75838;SHT30;64480;52.040;113.502;2023-04-24T05:42:24;5.24;15.67
75838;SHT30;64480;52.040;113.502;2023-04-24T05:45:27;5.29;16.33
75838;SHT30;64480;52.040;113.502;2023-04-24T05:48:31;5.66;16.00
75838;SHT30;64480;52.040;113.502;2023-04-24T05:51:37;5.74;15.78
75838;SHT30;64480;52.040;113.502;2023-04-24T05:54:42;5.64;15.89
75838;SHT30;64480;52.040;113.502;2023-04-24T05:57:48;5.71;15.73
75838;SHT30;64480;52.040;113.502;2023-04-24T06:00:52;5.60;16.37
75838;SHT30;64480;52.040;113.502;2023-04-24T06:03:55;5.83;16.09
75838;SHT30;64480;52.040;113.502;2023-04-24T06:07:00;5.97;16.32
75838;SHT30;64480;52.040;113.502;2023-04-24T06:10:04;6.05;15.64
75838;SHT30;64480;52.040;113.502;2023-04-24T06:13:14;6.00;15.54
75838;SHT30;64480;52.040;113.502;2023-04-24T06:16:30;5.75;16.06
75838;SHT30;64480;52.040;113.502;2023-04-24T06:19:40;5.94;16.31
75838;SHT30;64480;52.040;113.502;2023-04-24T06:22:45;6.10;15.80
75838;SHT30;64480;52.040;113.502;2023-04-24T06:25:48;6.02;16.17
75838;SHT30;64480;52.040;113.502;2023-04-24T06:28:54;6.02;15.84
75838;SHT30;64480;52.040;113.502;2023-04-24T06:31:59;5.94;16.31
75838;SHT30;64480;52.040;113.502;2023-04-24T06:35:03;6.00;16.14
75838;SHT30;64480;52.040;113.502;2023-04-24T06:38:07;6.17;15.47
75838;SHT30;64480;52.040;113.502;2023-04-24T06:41:10;6.26;15.82
75838;SHT30;64480;52.040;113.502;2023-04-24T06:44:14;6.18;15.58
75838;SHT30;64480;52.040;113.502;2023-04-24T06:47:18;6.01;15.76
75838;SHT30;64480;52.040;113.502;2023-04-24T06:50:21;6.01;16.64
75838;SHT30;64480;52.040;113.502;2023-04-24T06:53:25;5.94;16.19
75838;SHT30;64480;52.040;113.502;2023-04-24T06:56:29;5.87;16.04
75838;SHT30;64480;52.040;113.502;2023-04-24T06:59:32;6.02;15.75
75838;SHT30;64480;52.040;113.502;2023-04-24T07:02:36;6.14;15.99
75838;SHT30;64480;52.040;113.502;2023-04-24T07:05:40;6.18;15.79
75838;SHT30;64480;52.040;113.502;2023-04-24T07:08:44;6.08;16.27
75838;SHT30;64480;52.040;113.502;2023-04-24T07:11:48;6.01;15.98
75838;SHT30;64480;52.040;113.502;2023-04-24T07:14:51;6.08;16.11
75838;SHT30;64480;52.040;113.502;2023-04-24T07:17:55;6.18;15.89
75838;SHT30;64480;52.040;113.502;2023-04-24T07:21:15;6.12;15.83
75838;SHT30;64480;52.040;113.502;2023-04-24T07:24:19;6.18;16.21
75838;SHT30;64480;52.040;113.502;2023-04-24T07:27:25;6.21;15.43
75838;SHT30;64480;52.040;113.502;2023-04-24T07:30:28;6.14;15.64
75838;SHT30;64480;52.040;113.502;2023-04-24T07:33:32;6.21;15.54
75838;SHT30;64480;52.040;113.502;2023-04-24T07:36:36;6.26;15.54
75838;SHT30;64480;52.040;113.502;2023-04-24T07:39:41;6.33;15.93
75838;SHT30;64480;52.040;113.502;2023-04-24T07:42:45;6.35;15.65
75838;SHT30;64480;52.040;113.502;2023-04-24T07:45:51;6.38;15.73
75838;SHT30;64480;52.040;113.502;2023-04-24T07:48:55;6.38;15.34
75838;SHT30;64480;52.040;113.502;2023-04-24T07:52:13;6.40;15.48
75838;SHT30;64480;52.040;113.502;2023-04-24T07:55:17;6.57;15.99
75838;SHT30;64480;52.040;113.502;2023-04-24T07:58:42;6.43;15.57
75838;SHT30;64480;52.040;113.502;2023-04-24T08:01:47;6.40;15.66
75838;SHT30;64480;52.040;113.502;2023-04-24T08:04:50;6.17;15.36
75838;SHT30;64480;52.040;113.502;2023-04-24T08:07:55;6.24;15.73
75838;SHT30;64480;52.040;113.502;2023-04-24T08:10:58;6.38;15.45
75838;SHT30;64480;52.040;113.502;2023-04-24T08:14:02;6.52;14.87
75838;SHT30;64480;52.040;113.502;2023-04-24T08:17:05;6.39;14.92
75838;SHT30;64480;52.040;113.502;2023-04-24T08:20:10;6.38;15.50
75838;SHT30;64480;52.040;113.502;2023-04-24T08:23:16;6.35;15.45
75838;SHT30;64480;52.040;113.502;2023-04-24T08:26:19;6.29;15.35
75838;SHT30;64480;52.040;113.502;2023-04-24T08:29:23;6.24;15.22
75838;SHT30;64480;52.040;113.502;2023-04-24T08:32:26;6.21;15.63
75838;SHT30;64480;52.040;113.502;2023-04-24T08:35:35;6.30;15.68
75838;SHT30;64480;52.040;113.502;2023-04-24T08:38:38;6.33;15.68
75838;SHT30;64480;52.040;113.502;2023-04-24T08:41:44;6.42;15.24
75838;SHT30;64480;52.040;113.502;2023-04-24T08:44:49;6.22;15.35
75838;SHT30;64480;52.040;113.502;2023-04-24T08:47:53;6.28;15.60
75838;SHT30;64480;52.040;113.502;2023-04-24T08:51:00;6.40;15.70
75838;SHT30;64480;52.040;113.502;2023-04-24T08:54:04;6.32;15.51
75838;SHT30;64480;52.040;113.502;2023-04-24T08:57:10;6.30;15.78
75838;SHT30;64480;52.040;113.502;2023-04-24T09:00:15;6.28;16.03
75838;SHT30;64480;52.040;113.502;2023-04-24T09:03:18;6.43;16.06
75838;SHT30;64480;52.040;113.502;2023-04-24T09:06:24;6.35;15.60
75838;SHT30;64480;52.040;113.502;2023-04-24T09:09:30;6.30;15.67
75838;SHT30;64480;52.040;113.502;2023-04-24T09:12:34;6.36;15.97
75838;SHT30;64480;52.040;113.502;2023-04-24T09:15:39;6.43;16.10
75838;SHT30;64480;52.040;113.502;2023-04-24T09:18:42;6.36;15.68
75838;SHT30;64480;52.040;113.502;2023-04-24T09:21:46;6.30;15.62
75838;SHT30;64480;52.040;113.502;2023-04-24T09:25:02;6.36;15.95
75838;SHT30;64480;52.040;113.502;2023-04-24T09:28:06;6.38;16.01
75838;SHT30;64480;52.040;113.502;2023-04-24T09:31:12;6.29;15.78
75838;SHT30;64480;52.040;113.502;2023-04-24T09:34:25;6.30;16.04
75838;SHT30;64480;52.040;113.502;2023-04-24T09:37:29;6.25;15.70
75838;SHT30;64480;52.040;113.502;2023-04-24T09:40:34;6.21;15.91
75838;SHT30;64480;52.040;113.502;2023-04-24T09:43:41;6.15;16.40
75838;SHT30;64480;52.040;113.502;2023-04-24T09:47:04;6.15;16.27
75838;SHT30;64480;52.040;113.502;2023-04-24T09:50:16;6.17;15.99
75838;SHT30;64480;52.040;113.502;2023-04-24T09:53:28;6.21;16.18
75838;SHT30;64480;52.040;113.502;2023-04-24T09:56:33;6.15;16.43
75838;SHT30;64480;52.040;113.502;2023-04-24T09:59:42;6.14;16.63
75838;SHT30;64480;52.040;113.502;2023-04-24T10:03:02;6.21;16.54
75838;SHT30;64480;52.040;113.502;2023-04-24T10:06:06;6.12;16.57
75838;SHT30;64480;52.040;113.502;2023-04-24T10:09:12;6.07;16.54
75838;SHT30;64480;52.040;113.502;2023-04-24T10:12:16;6.00;16.41
75838;SHT30;64480;52.040;113.502;2023-04-24T10:15:20;5.91;16.78
75838;SHT30;64480;52.040;113.502;2023-04-24T10:18:24;5.90;16.78
75838;SHT30;64480;52.040;113.502;2023-04-24T10:21:28;5.83;16.71
75838;SHT30;64480;52.040;113.502;2023-04-24T10:24:33;5.78;16.82
75838;SHT30;64480;52.040;113.502;2023-04-24T10:27:39;5.77;16.94
75838;SHT30;64480;52.040;113.502;2023-04-24T10:30:43;5.75;17.02
75838;SHT30;64480;52.040;113.502;2023-04-24T10:33:47;5.73;17.30
75838;SHT30;64480;52.040;113.502;2023-04-24T10:36:53;5.69;17.33
75838;SHT30;64480;52.040;113.502;2023-04-24T10:39:59;5.66;16.90
75838;SHT30;64480;52.040;113.502;2023-04-24T10:43:04;5.63;17.77
75838;SHT30;64480;52.040;113.502;2023-04-24T10:46:19;5.57;17.38
75838;SHT30;64480;52.040;113.502;2023-04-24T10:49:30;5.53;17.64
75838;SHT30;64480;52.040;113.502;2023-04-24T10:52:44;5.46;17.40
75838;SHT30;64480;52.040;113.502;2023-04-24T10:55:57;5.36;17.55
75838;SHT30;64480;52.040;113.502;2023-04-24T10:59:00;5.31;17.88
75838;SHT30;64480;52.040;113.502;2023-04-24T11:02:07;5.18;17.58
75838;SHT30;64480;52.040;113.502;2023-04-24T11:05:11;5.05;17.68
75838;SHT30;64480;52.040;113.502;2023-04-24T11:11:31;4.91;18.43
75838;SHT30;64480;52.040;113.502;2023-04-24T11:18:01;4.77;19.12
75838;SHT30;64480;52.040;113.502;2023-04-24T11:21:15;4.73;18.76
75838;SHT30;64480;52.040;113.502;2023-04-24T11:24:39;4.67;18.81
75838;SHT30;64480;52.040;113.502;2023-04-24T11:27:51;4.57;18.76
75838;SHT30;64480;52.040;113.502;2023-04-24T11:31:34;4.48;19.25
75838;SHT30;64480;52.040;113.502;2023-04-24T11:34:38;4.32;19.15
75838;SHT30;64480;52.040;113.502;2023-04-24T11:37:44;4.24;19.60
75838;SHT30;64480;52.040;113.502;2023-04-24T11:40:54;4.12;19.75
75838;SHT30;64480;52.040;113.502;2023-04-24T11:43:58;4.07;19.89
75838;SHT30;64480;52.040;113.502;2023-04-24T11:47:02;3.94;19.99
75838;SHT30;64480;52.040;113.502;2023-04-24T11:50:07;3.87;20.05
75838;SHT30;64480;52.040;113.502;2023-04-24T11:53:12;3.77;20.16
75838;SHT30;64480;52.040;113.502;2023-04-24T11:56:18;3.72;20.36
75838;SHT30;64480;52.040;113.502;2023-04-24T11:59:22;3.67;20.26
75838;SHT30;64480;52.040;113.502;2023-04-24T12:02:26;3.62;20.43
75838;SHT30;64480;52.040;113.502;2023-04-24T12:05:30;3.53;20.33
75838;SHT30;64480;52.040;113.502;2023-04-24T12:08:34;3.45;20.44
75838;SHT30;64480;52.040;113.502;2023-04-24T12:11:53;3.42;20.53
75838;SHT30;64480;52.040;113.502;2023-04-24T12:14:58;3.36;20.80
75838;SHT30;64480;52.040;113.502;2023-04-24T12:18:03;3.34;20.71
75838;SHT30;64480;52.040;113.502;2023-04-24T12:21:20;3.28;20.59
75838;SHT30;64480;52.040;113.502;2023-04-24T12:24:24;3.27;20.70
75838;SHT30;64480;52.040;113.502;2023-04-24T12:27:32;3.22;20.74
75838;SHT30;64480;52.040;113.502;2023-04-24T12:33:47;3.11;21.13
75838;SHT30;64480;52.040;113.502;2023-04-24T12:36:50;3.05;21.42
75838;SHT30;64480;52.040;113.502;2023-04-24T12:40:04;3.01;21.04
75838;SHT30;64480;52.040;113.502;2023-04-24T12:43:19;3.03;21.33
75838;SHT30;64480;52.040;113.502;2023-04-24T12:46:26;2.97;21.24
75838;SHT30;64480;52.040;113.502;2023-04-24T12:49:30;2.91;21.24
75838;SHT30;64480;52.040;113.502;2023-04-24T12:52:34;2.93;21.23
75838;SHT30;64480;52.040;113.502;2023-04-24T12:55:38;2.89;21.21
75838;SHT30;64480;52.040;113.502;2023-04-24T12:58:41;2.83;21.32
75838;SHT30;64480;52.040;113.502;2023-04-24T13:01:45;2.79;22.27
75838;SHT30;64480;52.040;113.502;2023-04-24T13:04:49;2.72;21.72
75838;SHT30;64480;52.040;113.502;2023-04-24T13:07:53;2.63;21.98
75838;SHT30;64480;52.040;113.502;2023-04-24T13:10:57;2.53;23.16
75838;SHT30;64480;52.040;113.502;2023-04-24T13:14:01;2.44;22.32
75838;SHT30;64480;52.040;113.502;2023-04-24T13:17:06;2.44;23.68
75838;SHT30;64480;52.040;113.502;2023-04-24T13:20:11;2.26;24.45
75838;SHT30;64480;52.040;113.502;2023-04-24T13:23:16;2.10;25.32
75838;SHT30;64480;52.040;113.502;2023-04-24T13:26:20;1.96;25.73
75838;SHT30;64480;52.040;113.502;2023-04-24T13:29:25;1.84;26.08
75838;SHT30;64480;52.040;113.502;2023-04-24T13:32:29;1.72;26.50
75838;SHT30;64480;52.040;113.502;2023-04-24T13:35:33;1.56;27.85
75838;SHT30;64480;52.040;113.502;2023-04-24T13:38:37;1.48;28.26
75838;SHT30;64480;52.040;113.502;2023-04-24T13:41:41;1.39;27.82
75838;SHT30;64480;52.040;113.502;2023-04-24T13:44:45;1.30;28.88
75838;SHT30;64480;52.040;113.502;2023-04-24T13:47:49;1.21;29.42
75838;SHT30;64480;52.040;113.502;2023-04-24T13:50:53;1.14;29.70
75838;SHT30;64480;52.040;113.502;2023-04-24T13:53:58;1.07;29.75
75838;SHT30;64480;52.040;113.502;2023-04-24T13:57:03;0.98;30.19
75838;SHT30;64480;52.040;113.502;2023-04-24T14:00:07;0.96;30.55
75838;SHT30;64480;52.040;113.502;2023-04-24T14:03:13;0.87;31.04
75838;SHT30;64480;52.040;113.502;2023-04-24T14:06:18;0.83;30.41
75838;SHT30;64480;52.040;113.502;2023-04-24T14:09:22;0.77;30.90
75838;SHT30;64480;52.040;113.502;2023-04-24T14:12:25;0.65;30.85
75838;SHT30;64480;52.040;113.502;2023-04-24T14:15:28;0.62;31.22
75838;SHT30;64480;52.040;113.502;2023-04-24T14:18:32;0.55;30.57
75838;SHT30;64480;52.040;113.502;2023-04-24T14:21:36;0.51;30.82
75838;SHT30;64480;52.040;113.502;2023-04-24T14:24:42;0.48;30.83
75838;SHT30;64480;52.040;113.502;2023-04-24T14:27:45;0.40;30.69
75838;SHT30;64480;52.040;113.502;2023-04-24T14:30:50;0.37;31.82
75838;SHT30;64480;52.040;113.502;2023-04-24T14:33:53;0.31;30.96
75838;SHT30;64480;52.040;113.502;2023-04-24T14:36:57;0.26;31.46
75838;SHT30;64480;52.040;113.502;2023-04-24T14:40:02;0.19;31.64
75838;SHT30;64480;52.040;113.502;2023-04-24T14:43:27;0.13;31.59
75838;SHT30;64480;52.040;113.502;2023-04-24T14:46:30;0.08;32.16
75838;SHT30;64480;52.040;113.502;2023-04-24T14:49:34;0.04;31.71
75838;SHT30;64480;52.040;113.502;2023-04-24T14:52:37;-0.02;32.34
75838;SHT30;64480;52.040;113.502;2023-04-24T14:55:41;-0.06;32.46
75838;SHT30;64480;52.040;113.502;2023-04-24T14:58:44;-0.09;32.48
75838;SHT30;64480;52.040;113.502;2023-04-24T15:01:47;-0.10;33.09
75838;SHT30;64480;52.040;113.502;2023-04-24T15:04:58;-0.11;33.47
75838;SHT30;64480;52.040;113.502;2023-04-24T15:08:02;-0.13;33.05
75838;SHT30;64480;52.040;113.502;2023-04-24T15:11:05;-0.21;33.60
75838;SHT30;64480;52.040;113.502;2023-04-24T15:14:09;-0.28;33.50
75838;SHT30;64480;52.040;113.502;2023-04-24T15:17:13;-0.34;33.54
75838;SHT30;64480;52.040;113.502;2023-04-24T15:20:16;-0.41;33.84
75838;SHT30;64480;52.040;113.502;2023-04-24T15:23:20;-0.44;33.95
75838;SHT30;64480;52.040;113.502;2023-04-24T15:26:24;-0.47;34.43
75838;SHT30;64480;52.040;113.502;2023-04-24T15:29:28;-0.45;33.85
75838;SHT30;64480;52.040;113.502;2023-04-24T15:32:31;-0.42;35.39
75838;SHT30;64480;52.040;113.502;2023-04-24T15:35:35;-0.45;35.34
75838;SHT30;64480;52.040;113.502;2023-04-24T15:38:39;-0.45;35.66
75838;SHT30;64480;52.040;113.502;2023-04-24T15:41:42;-0.48;36.06
75838;SHT30;64480;52.040;113.502;2023-04-24T15:44:45;-0.49;35.63
75838;SHT30;64480;52.040;113.502;2023-04-24T15:47:50;-0.52;35.71
75838;SHT30;64480;52.040;113.502;2023-04-24T15:50:53;-0.55;35.92
75838;SHT30;64480;52.040;113.502;2023-04-24T15:53:57;-0.64;36.34
75838;SHT30;64480;52.040;113.502;2023-04-24T15:57:00;-0.65;36.61
75838;SHT30;64480;52.040;113.502;2023-04-24T16:00:05;-0.69;36.48
75838;SHT30;64480;52.040;113.502;2023-04-24T16:03:17;-0.72;36.97
75838;SHT30;64480;52.040;113.502;2023-04-24T16:06:21;-0.76;36.78
75838;SHT30;64480;52.040;113.502;2023-04-24T16:09:24;-0.80;37.42
75838;SHT30;64480;52.040;113.502;2023-04-24T16:12:27;-0.82;37.36
75838;SHT30;64480;52.040;113.502;2023-04-24T16:15:31;-0.85;37.21
75838;SHT30;64480;52.040;113.502;2023-04-24T16:18:35;-0.83;37.31
75838;SHT30;64480;52.040;113.502;2023-04-24T16:21:38;-0.86;37.70
75838;SHT30;64480;52.040;113.502;2023-04-24T16:24:42;-0.92;38.36
75838;SHT30;64480;52.040;113.502;2023-04-24T16:27:46;-0.96;38.32
75838;SHT30;64480;52.040;113.502;2023-04-24T16:30:50;-1.01;38.44
75838;SHT30;64480;52.040;113.502;2023-04-24T16:33:54;-1.08;38.52
75838;SHT30;64480;52.040;113.502;2023-04-24T16:36:57;-1.11;38.31
75838;SHT30;64480;52.040;113.502;2023-04-24T16:40:01;-1.13;38.69
75838;SHT30;64480;52.040;113.502;2023-04-24T16:43:06;-1.13;39.04
75838;SHT30;64480;52.040;113.502;2023-04-24T16:46:09;-1.18;39.40
75838;SHT30;64480;52.040;113.502;2023-04-24T16:49:13;-1.22;39.50
75838;SHT30;64480;52.040;113.502;2023-04-24T16:52:17;-1.25;39.36
75838;SHT30;64480;52.040;113.502;2023-04-24T16:55:20;-1.27;39.72
75838;SHT30;64480;52.040;113.502;2023-04-24T16:58:23;-1.31;39.88
75838;SHT30;64480;52.040;113.502;2023-04-24T17:01:27;-1.35;40.43
75838;SHT30;64480;52.040;113.502;2023-04-24T17:04:31;-1.44;40.50
75838;SHT30;64480;52.040;113.502;2023-04-24T17:07:37;-1.52;39.98
75838;SHT30;64480;52.040;113.502;2023-04-24T17:10:40;-1.55;40.46
75838;SHT30;64480;52.040;113.502;2023-04-24T17:13:44;-1.58;40.65
75838;SHT30;64480;52.040;113.502;2023-04-24T17:16:47;-1.60;40.62
75838;SHT30;64480;52.040;113.502;2023-04-24T17:19:51;-1.63;40.66
75838;SHT30;64480;52.040;113.502;2023-04-24T17:22:54;-1.60;40.85
75838;SHT30;64480;52.040;113.502;2023-04-24T17:25:58;-1.69;41.38
75838;SHT30;64480;52.040;113.502;2023-04-24T17:29:01;-1.75;41.86
75838;SHT30;64480;52.040;113.502;2023-04-24T17:32:05;-1.82;41.46
75838;SHT30;64480;52.040;113.502;2023-04-24T17:35:08;-1.87;41.28
75838;SHT30;64480;52.040;113.502;2023-04-24T17:38:12;-1.96;41.31
75838;SHT30;64480;52.040;113.502;2023-04-24T17:41:16;-2.00;41.45
75838;SHT30;64480;52.040;113.502;2023-04-24T17:44:19;-1.97;42.39
75838;SHT30;64480;52.040;113.502;2023-04-24T17:47:23;-2.03;42.91
75838;SHT30;64480;52.040;113.502;2023-04-24T17:50:28;-2.14;43.41
75838;SHT30;64480;52.040;113.502;2023-04-24T17:53:31;-2.18;44.08
75838;SHT30;64480;52.040;113.502;2023-04-24T17:56:34;-2.22;43.78
75838;SHT30;64480;52.040;113.502;2023-04-24T17:59:38;-2.21;43.94
75838;SHT30;64480;52.040;113.502;2023-04-24T18:02:41;-2.28;43.53
75838;SHT30;64480;52.040;113.502;2023-04-24T18:05:44;-2.40;43.00
75838;SHT30;64480;52.040;113.502;2023-04-24T18:08:48;-2.42;42.44
75838;SHT30;64480;52.040;113.502;2023-04-24T18:11:51;-2.48;43.02
75838;SHT30;64480;52.040;113.502;2023-04-24T18:14:55;-2.41;43.69
75838;SHT30;64480;52.040;113.502;2023-04-24T18:18:15;-2.44;44.34
75838;SHT30;64480;52.040;113.502;2023-04-24T18:21:19;-2.55;44.24
75838;SHT30;64480;52.040;113.502;2023-04-24T18:24:23;-2.66;43.95
75838;SHT30;64480;52.040;113.502;2023-04-24T18:27:27;-2.73;43.10
75838;SHT30;64480;52.040;113.502;2023-04-24T18:30:33;-2.79;43.59
75838;SHT30;64480;52.040;113.502;2023-04-24T18:33:37;-2.88;43.84
75838;SHT30;64480;52.040;113.502;2023-04-24T18:36:40;-2.93;44.80
75838;SHT30;64480;52.040;113.502;2023-04-24T18:39:44;-2.93;43.85
75838;SHT30;64480;52.040;113.502;2023-04-24T18:42:47;-2.96;43.69
75838;SHT30;64480;52.040;113.502;2023-04-24T18:45:51;-3.00;44.29
75838;SHT30;64480;52.040;113.502;2023-04-24T18:48:54;-3.01;43.82
75838;SHT30;64480;52.040;113.502;2023-04-24T18:51:58;-3.03;44.05
75838;SHT30;64480;52.040;113.502;2023-04-24T18:55:03;-2.93;44.41
75838;SHT30;64480;52.040;113.502;2023-04-24T18:58:08;-2.90;44.66
75838;SHT30;64480;52.040;113.502;2023-04-24T19:01:11;-2.91;44.89
75838;SHT30;64480;52.040;113.502;2023-04-24T19:04:15;-2.96;44.86
75838;SHT30;64480;52.040;113.502;2023-04-24T19:07:19;-3.00;44.81
75838;SHT30;64480;52.040;113.502;2023-04-24T19:10:23;-3.07;45.27
75838;SHT30;64480;52.040;113.502;2023-04-24T19:13:27;-3.08;46.33
75838;SHT30;64480;52.040;113.502;2023-04-24T19:16:31;-3.11;46.95
75838;SHT30;64480;52.040;113.502;2023-04-24T19:19:35;-3.12;47.27